sensor_id;sensor_type;location;lat;lon;timestamp;pressure;altitude;pressure_sealevel;temperature;humidity
51359;BME280;37448;51.588;7.248;2023-11-21T00:00:06;100370.44;;;5.75;100.00
51359;BME280;37448;51.588;7.248;2023-11-21T00:02:13;100372.16;;;5.77;100.00
51359;BME280;37448;51.588;7.248;2023-11-21T00:04:13;100374.72;;;5.81;100.00
51359;BME280;37448;51.588;7.248;2023-11-21T00:06:15;100385.06;;;5.84;100.00
51359;BME280;37448;51.588;7.248;2023-11-21T00:08:16;100376.41;;;5.87;100.00
51359;BME280;37448;51.588;7.248;2023-11-21T00:10:16;100373.78;;;5.92;100.00
51359;BME280;37448;51.588;7.248;2023-11-21T00:12:17;100366.00;;;5.92;100.00
51359;BME280;37448;51.588;7.248;2023-11-21T00:14:18;100372.91;;;5.96;100.00
51359;BME280;37448;51.588;7.248;2023-11-21T00:16:18;100385.88;;;5.94;100.00
51359;BME280;37448;51.588;7.248;2023-11-21T00:18:19;100379.78;;;6.00;100.00
51359;BME280;37448;51.588;7.248;2023-11-21T00:20:21;100376.34;;;5.99;100.00
51359;BME280;37448;51.588;7.248;2023-11-21T00:22:22;100372.00;;;6.00;100.00
51359;BME280;37448;51.588;7.248;2023-11-21T00:24:22;100385.84;;;6.03;100.00
51359;BME280;37448;51.588;7.248;2023-11-21T00:26:22;100380.69;;;5.97;100.00
51359;BME280;37448;51.588;7.248;2023-11-21T00:28:34;100387.53;;;6.08;100.00
51359;BME280;37448;51.588;7.248;2023-11-21T00:30:34;100394.47;;;5.99;100.00
51359;BME280;37448;51.588;7.248;2023-11-21T00:32:40;100386.72;;;5.98;100.00
51359;BME280;37448;51.588;7.248;2023-11-21T00:34:41;100388.44;;;6.05;100.00
51359;BME280;37448;51.588;7.248;2023-11-21T00:36:42;100389.25;;;6.09;100.00
51359;BME280;37448;51.588;7.248;2023-11-21T00:38:42;100389.25;;;6.09;100.00
51359;BME280;37448;51.588;7.248;2023-11-21T00:40:43;100396.16;;;6.11;100.00
51359;BME280;37448;51.588;7.248;2023-11-21T00:42:43;100393.53;;;6.13;100.00
51359;BME280;37448;51.588;7.248;2023-11-21T00:44:44;100394.44;;;6.15;100.00
51359;BME280;37448;51.588;7.248;2023-11-21T00:46:44;100396.13;;;6.13;100.00
51359;BME280;37448;51.588;7.248;2023-11-21T00:48:45;100397.00;;;6.16;100.00
51359;BME280;37448;51.588;7.248;2023-11-21T00:50:45;100397.84;;;6.20;100.00
51359;BME280;37448;51.588;7.248;2023-11-21T00:52:45;100401.25;;;6.25;100.00
51359;BME280;37448;51.588;7.248;2023-11-21T00:54:46;100395.22;;;6.23;100.00
51359;BME280;37448;51.588;7.248;2023-11-21T00:56:48;100400.38;;;6.26;100.00
51359;BME280;37448;51.588;7.248;2023-11-21T00:58:49;100399.53;;;6.24;100.00
51359;BME280;37448;51.588;7.248;2023-11-21T01:00:51;100390.84;;;6.30;100.00
51359;BME280;37448;51.588;7.248;2023-11-21T01:02:51;100404.66;;;6.30;100.00
51359;BME280;37448;51.588;7.248;2023-11-21T01:04:52;100399.47;;;6.30;100.00
51359;BME280;37448;51.588;7.248;2023-11-21T01:06:52;100392.56;;;6.29;100.00
51359;BME280;37448;51.588;7.248;2023-11-21T01:08:52;100402.94;;;6.29;100.00
51359;BME280;37448;51.588;7.248;2023-11-21T01:10:53;100404.69;;;6.29;100.00
51359;BME280;37448;51.588;7.248;2023-11-21T01:12:54;100402.97;;;6.26;100.00
51359;BME280;37448;51.588;7.248;2023-11-21T01:14:54;100406.44;;;6.25;100.00
51359;BME280;37448;51.588;7.248;2023-11-21T01:16:54;100409.00;;;6.30;100.00
51359;BME280;37448;51.588;7.248;2023-11-21T01:18:55;100420.22;;;6.30;100.00
51359;BME280;37448;51.588;7.248;2023-11-21T01:20:55;100411.59;;;6.28;100.00
51359;BME280;37448;51.588;7.248;2023-11-21T01:22:56;100408.16;;;6.26;100.00
51359;BME280;37448;51.588;7.248;2023-11-21T01:24:56;100413.34;;;6.26;100.00
51359;BME280;37448;51.588;7.248;2023-11-21T01:26:58;100409.03;;;6.25;100.00
51359;BME280;37448;51.588;7.248;2023-11-21T01:28:58;100409.88;;;6.27;100.00
51359;BME280;37448;51.588;7.248;2023-11-21T01:30:59;100422.88;;;6.23;100.00
51359;BME280;37448;51.588;7.248;2023-11-21T01:33:00;100422.88;;;6.24;100.00
51359;BME280;37448;51.588;7.248;2023-11-21T01:35:00;100425.47;;;6.24;100.00
51359;BME280;37448;51.588;7.248;2023-11-21T01:37:00;100425.47;;;6.24;100.00
51359;BME280;37448;51.588;7.248;2023-11-21T01:39:05;100428.09;;;6.21;100.00
51359;BME280;37448;51.588;7.248;2023-11-21T01:41:11;100422.88;;;6.23;100.00
51359;BME280;37448;51.588;7.248;2023-11-21T01:43:14;100422.88;;;6.23;100.00
51359;BME280;37448;51.588;7.248;2023-11-21T01:45:15;100422.88;;;6.24;100.00
51359;BME280;37448;51.588;7.248;2023-11-21T01:47:16;100422.03;;;6.22;100.00
51359;BME280;37448;51.588;7.248;2023-11-21T01:49:18;100413.41;;;6.20;100.00
51359;BME280;37448;51.588;7.248;2023-11-21T01:51:18;100426.34;;;6.18;100.00
51359;BME280;37448;51.588;7.248;2023-11-21T01:53:19;100424.66;;;6.14;100.00
51359;BME280;37448;51.588;7.248;2023-11-21T01:55:20;100429.03;;;6.09;100.00
51359;BME280;37448;51.588;7.248;2023-11-21T01:57:21;100423.00;;;6.02;100.00
51359;BME280;37448;51.588;7.248;2023-11-21T01:59:22;100430.78;;;5.99;100.00
51359;BME280;37448;51.588;7.248;2023-11-21T02:01:23;100429.94;;;5.93;100.00
51359;BME280;37448;51.588;7.248;2023-11-21T02:03:23;100428.25;;;5.88;100.00
51359;BME280;37448;51.588;7.248;2023-11-21T02:05:24;100436.06;;;5.82;100.00
51359;BME280;37448;51.588;7.248;2023-11-21T02:07:26;100435.22;;;5.74;100.00
51359;BME280;37448;51.588;7.248;2023-11-21T02:09:27;100436.97;;;5.70;100.00
51359;BME280;37448;51.588;7.248;2023-11-21T02:11:28;100433.53;;;5.65;100.00
51359;BME280;37448;51.588;7.248;2023-11-21T02:13:28;100439.59;;;5.61;100.00
51359;BME280;37448;51.588;7.248;2023-11-21T02:15:29;100445.63;;;5.63;100.00
51359;BME280;37448;51.588;7.248;2023-11-21T02:17:29;100437.88;;;5.60;100.00
51359;BME280;37448;51.588;7.248;2023-11-21T02:19:31;100442.22;;;5.59;100.00
51359;BME280;37448;51.588;7.248;2023-11-21T02:21:32;100438.72;;;5.62;100.00
51359;BME280;37448;51.588;7.248;2023-11-21T02:23:33;100446.47;;;5.65;100.00
51359;BME280;37448;51.588;7.248;2023-11-21T02:25:33;100455.13;;;5.70;100.00
51359;BME280;37448;51.588;7.248;2023-11-21T02:27:34;100458.53;;;5.74;100.00
51359;BME280;37448;51.588;7.248;2023-11-21T02:29:34;100455.09;;;5.77;100.00
51359;BME280;37448;51.588;7.248;2023-11-21T02:31:35;100460.25;;;5.77;100.00
51359;BME280;37448;51.588;7.248;2023-11-21T02:33:36;100462.00;;;5.78;100.00
51359;BME280;37448;51.588;7.248;2023-11-21T02:35:36;100463.72;;;5.79;100.00
51359;BME280;37448;51.588;7.248;2023-11-21T02:37:38;100460.25;;;5.80;100.00
51359;BME280;37448;51.588;7.248;2023-11-21T02:39:39;100457.66;;;5.81;100.00
51359;BME280;37448;51.588;7.248;2023-11-21T02:41:39;100460.25;;;5.80;100.00
51359;BME280;37448;51.588;7.248;2023-11-21T02:43:40;100462.00;;;5.78;100.00
51359;BME280;37448;51.588;7.248;2023-11-21T02:45:40;100459.38;;;5.76;100.00
51359;BME280;37448;51.588;7.248;2023-11-21T02:47:42;100461.13;;;5.75;100.00
51359;BME280;37448;51.588;7.248;2023-11-21T02:49:43;100468.06;;;5.72;100.00
51359;BME280;37448;51.588;7.248;2023-11-21T02:51:44;100462.84;;;5.75;100.00
51359;BME280;37448;51.588;7.248;2023-11-21T02:53:44;100465.44;;;5.77;100.00
51359;BME280;37448;51.588;7.248;2023-11-21T02:55:46;100470.63;;;5.77;100.00
51359;BME280;37448;51.588;7.248;2023-11-21T02:57:47;100473.22;;;5.77;100.00
51359;BME280;37448;51.588;7.248;2023-11-21T02:59:47;100464.56;;;5.81;100.00
51359;BME280;37448;51.588;7.248;2023-11-21T03:01:47;100468.03;;;5.80;100.00
51359;BME280;37448;51.588;7.248;2023-11-21T03:03:49;100470.59;;;5.78;100.00
51359;BME280;37448;51.588;7.248;2023-11-21T03:05:51;100473.19;;;5.78;100.00
51359;BME280;37448;51.588;7.248;2023-11-21T03:07:51;100477.53;;;5.79;100.00
51359;BME280;37448;51.588;7.248;2023-11-21T03:09:52;100475.78;;;5.83;100.00
51359;BME280;37448;51.588;7.248;2023-11-21T03:11:55;100482.69;;;5.84;100.00
51359;BME280;37448;51.588;7.248;2023-11-21T03:13:55;100487.84;;;5.87;100.00
51359;BME280;37448;51.588;7.248;2023-11-21T03:15:56;100480.06;;;5.87;100.00
51359;BME280;37448;51.588;7.248;2023-11-21T03:17:56;100480.94;;;5.89;100.00
51359;BME280;37448;51.588;7.248;2023-11-21T03:19:58;100481.81;;;5.89;100.00
51359;BME280;37448;51.588;7.248;2023-11-21T03:21:58;100488.72;;;5.92;100.00
51359;BME280;37448;51.588;7.248;2023-11-21T03:23:59;100484.38;;;5.94;100.00
51359;BME280;37448;51.588;7.248;2023-11-21T03:26:00;100490.41;;;5.95;100.00
51359;BME280;37448;51.588;7.248;2023-11-21T03:28:00;100480.94;;;5.92;100.00
51359;BME280;37448;51.588;7.248;2023-11-21T03:30:01;100488.72;;;5.92;100.00
51359;BME280;37448;51.588;7.248;2023-11-21T03:32:04;100487.81;;;5.96;100.00
51359;BME280;37448;51.588;7.248;2023-11-21T03:34:04;100491.28;;;5.98;100.00
51359;BME280;37448;51.588;7.248;2023-11-21T03:36:05;100494.72;;;5.99;100.00
51359;BME280;37448;51.588;7.248;2023-11-21T03:38:09;100498.19;;;5.99;100.00
51359;BME280;37448;51.588;7.248;2023-11-21T03:40:10;100500.75;;;5.98;100.00
51359;BME280;37448;51.588;7.248;2023-11-21T03:42:12;100510.28;;;5.97;100.00
51359;BME280;37448;51.588;7.248;2023-11-21T03:44:13;100514.56;;;6.00;100.00
51359;BME280;37448;51.588;7.248;2023-11-21T03:46:14;100511.16;;;6.01;100.00
51359;BME280;37448;51.588;7.248;2023-11-21T03:48:14;100518.06;;;6.02;100.00
51359;BME280;37448;51.588;7.248;2023-11-21T03:50:15;100524.13;;;6.02;100.00
51359;BME280;37448;51.588;7.248;2023-11-21T03:52:17;100523.25;;;6.03;100.00
51359;BME280;37448;51.588;7.248;2023-11-21T03:54:17;100527.56;;;6.05;100.00
51359;BME280;37448;51.588;7.248;2023-11-21T03:56:18;100527.53;;;6.08;100.00
51359;BME280;37448;51.588;7.248;2023-11-21T03:58:19;100522.34;;;6.08;100.00
51359;BME280;37448;51.588;7.248;2023-11-21T04:00:19;100529.25;;;6.09;100.00
51359;BME280;37448;51.588;7.248;2023-11-21T04:02:20;100529.28;;;6.06;100.00
51359;BME280;37448;51.588;7.248;2023-11-21T04:04:20;100536.19;;;6.10;100.00
51359;BME280;37448;51.588;7.248;2023-11-21T04:06:21;100535.31;;;6.11;100.00
51359;BME280;37448;51.588;7.248;2023-11-21T04:08:21;100537.06;;;6.10;100.00
51359;BME280;37448;51.588;7.248;2023-11-21T04:10:21;100536.19;;;6.10;100.00
51359;BME280;37448;51.588;7.248;2023-11-21T04:12:22;100537.03;;;6.12;100.00
51359;BME280;37448;51.588;7.248;2023-11-21T04:14:22;100541.34;;;6.13;100.00
51359;BME280;37448;51.588;7.248;2023-11-21T04:16:23;100543.06;;;6.14;100.00
51359;BME280;37448;51.588;7.248;2023-11-21T04:18:23;100543.06;;;6.14;100.00
51359;BME280;37448;51.588;7.248;2023-11-21T04:20:24;100541.34;;;6.13;100.00
51359;BME280;37448;51.588;7.248;2023-11-21T04:22:25;100544.81;;;6.12;100.00
51359;BME280;37448;51.588;7.248;2023-11-21T04:24:25;100544.81;;;6.09;100.00
51359;BME280;37448;51.588;7.248;2023-11-21T04:26:26;100546.53;;;6.10;100.00
51359;BME280;37448;51.588;7.248;2023-11-21T04:28:26;100543.94;;;6.10;100.00
51359;BME280;37448;51.588;7.248;2023-11-21T04:30:26;100543.97;;;6.07;100.00
51359;BME280;37448;51.588;7.248;2023-11-21T04:32:27;100544.00;;;6.03;100.00
51359;BME280;37448;51.588;7.248;2023-11-21T04:34:27;100548.31;;;5.98;100.00
51359;BME280;37448;51.588;7.248;2023-11-21T04:36:30;100546.59;;;5.94;100.00
51359;BME280;37448;51.588;7.248;2023-11-21T04:38:31;100544.00;;;5.88;100.00
51359;BME280;37448;51.588;7.248;2023-11-21T04:40:31;100550.06;;;5.84;100.00
51359;BME280;37448;51.588;7.248;2023-11-21T04:42:37;100553.53;;;5.80;100.00
51359;BME280;37448;51.588;7.248;2023-11-21T04:44:37;100556.16;;;5.72;100.00
51359;BME280;37448;51.588;7.248;2023-11-21T04:46:41;100550.13;;;5.65;100.00
51359;BME280;37448;51.588;7.248;2023-11-21T04:48:41;100558.75;;;5.61;100.00
51359;BME280;37448;51.588;7.248;2023-11-21T04:50:41;100553.59;;;5.55;100.00
51359;BME280;37448;51.588;7.248;2023-11-21T04:52:42;100554.47;;;5.51;100.00
51359;BME280;37448;51.588;7.248;2023-11-21T04:54:42;100559.66;;;5.49;100.00
51359;BME280;37448;51.588;7.248;2023-11-21T04:56:43;100559.69;;;5.44;100.00
51359;BME280;37448;51.588;7.248;2023-11-21T04:58:43;100569.16;;;5.42;100.00
51359;BME280;37448;51.588;7.248;2023-11-21T05:00:44;100567.44;;;5.40;100.00
51359;BME280;37448;51.588;7.248;2023-11-21T05:02:44;100569.16;;;5.39;100.00
51359;BME280;37448;51.588;7.248;2023-11-21T05:04:45;100573.47;;;5.37;100.00
51359;BME280;37448;51.588;7.248;2023-11-21T05:06:45;100574.34;;;5.33;100.00
51359;BME280;37448;51.588;7.248;2023-11-21T05:08:46;100569.19;;;5.30;100.00
51359;BME280;37448;51.588;7.248;2023-11-21T05:10:47;100570.91;;;5.28;100.00
51359;BME280;37448;51.588;7.248;2023-11-21T05:12:49;100575.22;;;5.24;100.00
51359;BME280;37448;51.588;7.248;2023-11-21T05:14:51;100573.50;;;5.20;100.00
51359;BME280;37448;51.588;7.248;2023-11-21T05:16:51;100575.22;;;5.16;100.00
51359;BME280;37448;51.588;7.248;2023-11-21T05:18:52;100573.50;;;5.12;100.00
51359;BME280;37448;51.588;7.248;2023-11-21T05:20:52;100573.50;;;5.09;100.00
51359;BME280;37448;51.588;7.248;2023-11-21T05:22:53;100579.53;;;5.05;100.00
51359;BME280;37448;51.588;7.248;2023-11-21T05:24:54;100572.66;;;5.01;100.00
51359;BME280;37448;51.588;7.248;2023-11-21T05:26:54;100583.00;;;4.98;100.00
51359;BME280;37448;51.588;7.248;2023-11-21T05:28:56;100593.34;;;4.95;100.00
51359;BME280;37448;51.588;7.248;2023-11-21T05:30:56;100595.06;;;4.89;100.00
51359;BME280;37448;51.588;7.248;2023-11-21T05:32:57;100595.91;;;4.88;100.00
51359;BME280;37448;51.588;7.248;2023-11-21T05:34:57;100605.41;;;4.88;100.00
51359;BME280;37448;51.588;7.248;2023-11-21T05:36:57;100603.69;;;4.85;100.00
51359;BME280;37448;51.588;7.248;2023-11-21T05:38:58;100608.84;;;4.85;100.00
51359;BME280;37448;51.588;7.248;2023-11-21T05:40:58;100604.56;;;4.86;100.00
51359;BME280;37448;51.588;7.248;2023-11-21T05:42:59;100614.03;;;4.88;100.00
51359;BME280;37448;51.588;7.248;2023-11-21T05:44:59;100612.31;;;4.89;100.00
51359;BME280;37448;51.588;7.248;2023-11-21T05:47:09;100618.34;;;4.93;100.00
51359;BME280;37448;51.588;7.248;2023-11-21T05:49:10;100620.94;;;4.89;100.00
51359;BME280;37448;51.588;7.248;2023-11-21T05:51:10;100620.94;;;4.93;100.00
51359;BME280;37448;51.588;7.248;2023-11-21T05:53:12;100626.97;;;4.93;100.00
51359;BME280;37448;51.588;7.248;2023-11-21T05:55:16;100633.88;;;4.97;100.00
51359;BME280;37448;51.588;7.248;2023-11-21T05:57:16;100639.94;;;4.98;100.00
51359;BME280;37448;51.588;7.248;2023-11-21T05:59:17;100636.50;;;4.99;100.00
51359;BME280;37448;51.588;7.248;2023-11-21T06:01:17;100644.25;;;4.99;100.00
51359;BME280;37448;51.588;7.248;2023-11-21T06:03:18;100648.56;;;5.00;100.00
51359;BME280;37448;51.588;7.248;2023-11-21T06:05:20;100647.69;;;5.02;100.00
51359;BME280;37448;51.588;7.248;2023-11-21T06:07:21;100638.22;;;5.03;100.00
51359;BME280;37448;51.588;7.248;2023-11-21T06:09:21;100643.41;;;5.06;100.00
51359;BME280;37448;51.588;7.248;2023-11-21T06:11:22;100653.75;;;5.06;100.00
51359;BME280;37448;51.588;7.248;2023-11-21T06:13:23;100649.44;;;5.13;100.00
51359;BME280;37448;51.588;7.248;2023-11-21T06:15:24;100644.25;;;5.14;100.00
51359;BME280;37448;51.588;7.248;2023-11-21T06:17:25;100651.19;;;5.14;100.00
51359;BME280;37448;51.588;7.248;2023-11-21T06:19:28;100646.00;;;5.14;100.00
51359;BME280;37448;51.588;7.248;2023-11-21T06:21:28;100658.94;;;5.11;100.00
51359;BME280;37448;51.588;7.248;2023-11-21T06:23:28;100664.09;;;5.15;100.00
51359;BME280;37448;51.588;7.248;2023-11-21T06:25:29;100674.50;;;5.19;100.00
51359;BME280;37448;51.588;7.248;2023-11-21T06:27:34;100681.41;;;5.20;100.00
51359;BME280;37448;51.588;7.248;2023-11-21T06:29:36;100685.69;;;5.22;100.00
51359;BME280;37448;51.588;7.248;2023-11-21T06:31:37;100686.56;;;5.26;100.00
51359;BME280;37448;51.588;7.248;2023-11-21T06:33:37;100692.59;;;5.29;100.00
51359;BME280;37448;51.588;7.248;2023-11-21T06:35:38;100686.56;;;5.32;100.00
51359;BME280;37448;51.588;7.248;2023-11-21T06:37:38;100693.47;;;5.39;100.00
51359;BME280;37448;51.588;7.248;2023-11-21T06:39:39;100697.81;;;5.43;100.00
51359;BME280;37448;51.588;7.248;2023-11-21T06:41:39;100694.34;;;5.43;100.00
51359;BME280;37448;51.588;7.248;2023-11-21T06:43:40;100691.78;;;5.46;100.00
51359;BME280;37448;51.588;7.248;2023-11-21T06:45:40;100696.09;;;5.52;100.00
51359;BME280;37448;51.588;7.248;2023-11-21T06:47:41;100697.81;;;5.50;100.00
51359;BME280;37448;51.588;7.248;2023-11-21T06:49:42;100697.81;;;5.54;100.00
51359;BME280;37448;51.588;7.248;2023-11-21T06:51:43;100705.59;;;5.56;100.00
51359;BME280;37448;51.588;7.248;2023-11-21T06:53:43;100708.19;;;5.59;100.00
51359;BME280;37448;51.588;7.248;2023-11-21T06:55:44;100703.84;;;5.61;100.00
51359;BME280;37448;51.588;7.248;2023-11-21T06:57:45;100707.31;;;5.60;100.00
51359;BME280;37448;51.588;7.248;2023-11-21T06:59:47;100710.75;;;5.62;100.00
51359;BME280;37448;51.588;7.248;2023-11-21T07:01:47;100715.09;;;5.62;100.00
51359;BME280;37448;51.588;7.248;2023-11-21T07:03:47;100716.81;;;5.66;100.00
51359;BME280;37448;51.588;7.248;2023-11-21T07:05:48;100723.72;;;5.65;100.00
51359;BME280;37448;51.588;7.248;2023-11-21T07:07:49;100722.00;;;5.58;100.00
51359;BME280;37448;51.588;7.248;2023-11-21T07:09:49;100728.06;;;5.65;100.00
51359;BME280;37448;51.588;7.248;2023-11-21T07:11:52;100729.75;;;5.64;100.00
51359;BME280;37448;51.588;7.248;2023-11-21T07:13:53;100730.66;;;5.65;100.00
51359;BME280;37448;51.588;7.248;2023-11-21T07:15:53;100730.63;;;5.68;100.00
51359;BME280;37448;51.588;7.248;2023-11-21T07:17:54;100735.84;;;5.69;100.00
51359;BME280;37448;51.588;7.248;2023-11-21T07:19:54;100738.41;;;5.66;100.00
51359;BME280;37448;51.588;7.248;2023-11-21T07:21:55;100739.28;;;5.68;100.00
51359;BME280;37448;51.588;7.248;2023-11-21T07:23:55;100747.06;;;5.68;100.00
51359;BME280;37448;51.588;7.248;2023-11-21T07:25:56;100745.31;;;5.66;100.00
51359;BME280;37448;51.588;7.248;2023-11-21T07:27:56;100750.50;;;5.69;100.00
51359;BME280;37448;51.588;7.248;2023-11-21T07:29:57;100740.16;;;5.67;100.00
51359;BME280;37448;51.588;7.248;2023-11-21T07:31:57;100748.78;;;5.69;100.00
51359;BME280;37448;51.588;7.248;2023-11-21T07:33:58;100750.50;;;5.69;100.00
51359;BME280;37448;51.588;7.248;2023-11-21T07:35:58;100752.25;;;5.71;100.00
51359;BME280;37448;51.588;7.248;2023-11-21T07:37:58;100752.25;;;5.74;100.00
51359;BME280;37448;51.588;7.248;2023-11-21T07:39:59;100759.16;;;5.75;100.00
51359;BME280;37448;51.588;7.248;2023-11-21T07:41:59;100763.47;;;5.75;100.00
51359;BME280;37448;51.588;7.248;2023-11-21T07:44:00;100755.69;;;5.80;100.00
51359;BME280;37448;51.588;7.248;2023-11-21T07:46:04;100759.16;;;5.83;100.00
51359;BME280;37448;51.588;7.248;2023-11-21T07:48:05;100753.97;;;5.85;100.00
51359;BME280;37448;51.588;7.248;2023-11-21T07:50:07;100757.41;;;5.90;100.00
51359;BME280;37448;51.588;7.248;2023-11-21T07:52:08;100759.13;;;5.88;100.00
51359;BME280;37448;51.588;7.248;2023-11-21T07:54:08;100766.06;;;5.92;100.00
51359;BME280;37448;51.588;7.248;2023-11-21T07:56:09;100773.00;;;5.93;100.00
51359;BME280;37448;51.588;7.248;2023-11-21T07:58:09;100761.75;;;5.94;100.00
51359;BME280;37448;51.588;7.248;2023-11-21T08:00:10;100770.38;;;5.95;100.00
51359;BME280;37448;51.588;7.248;2023-11-21T08:02:15;100774.72;;;5.94;100.00
51359;BME280;37448;51.588;7.248;2023-11-21T08:04:17;100779.03;;;5.95;100.00
51359;BME280;37448;51.588;7.248;2023-11-21T08:06:18;100785.06;;;5.97;100.00
51359;BME280;37448;51.588;7.248;2023-11-21T08:08:19;100791.13;;;5.98;100.00
51359;BME280;37448;51.588;7.248;2023-11-21T08:10:19;100791.13;;;5.96;100.00
51359;BME280;37448;51.588;7.248;2023-11-21T08:12:21;100801.47;;;5.98;100.00
51359;BME280;37448;51.588;7.248;2023-11-21T08:14:22;100804.13;;;6.02;100.00
51359;BME280;37448;51.588;7.248;2023-11-21T08:16:25;100814.47;;;6.09;100.00
51359;BME280;37448;51.588;7.248;2023-11-21T08:18:25;100818.81;;;6.14;100.00
51359;BME280;37448;51.588;7.248;2023-11-21T08:20:26;100822.28;;;6.18;100.00
51359;BME280;37448;51.588;7.248;2023-11-21T08:22:26;100832.63;;;6.26;100.00
51359;BME280;37448;51.588;7.248;2023-11-21T08:24:27;100831.75;;;6.31;100.00
51359;BME280;37448;51.588;7.248;2023-11-21T08:26:27;100840.41;;;6.37;100.00
51359;BME280;37448;51.588;7.248;2023-11-21T08:28:28;100842.13;;;6.42;100.00
51359;BME280;37448;51.588;7.248;2023-11-21T08:30:28;100854.22;;;6.50;100.00
51359;BME280;37448;51.588;7.248;2023-11-21T08:32:30;100848.19;;;6.52;100.00
51359;BME280;37448;51.588;7.248;2023-11-21T08:34:32;100849.03;;;6.56;100.00
51359;BME280;37448;51.588;7.248;2023-11-21T08:36:32;100854.22;;;6.57;100.00
51359;BME280;37448;51.588;7.248;2023-11-21T08:38:33;100863.72;;;6.63;100.00
51359;BME280;37448;51.588;7.248;2023-11-21T08:40:34;100873.25;;;6.66;100.00
51359;BME280;37448;51.588;7.248;2023-11-21T08:42:35;100868.94;;;6.68;100.00
51359;BME280;37448;51.588;7.248;2023-11-21T08:44:36;100873.25;;;6.69;100.00
51359;BME280;37448;51.588;7.248;2023-11-21T08:46:36;100863.72;;;6.71;100.00
51359;BME280;37448;51.588;7.248;2023-11-21T08:48:40;100872.34;;;6.76;100.00
51359;BME280;37448;51.588;7.248;2023-11-21T08:50:41;100873.22;;;6.78;100.00
51359;BME280;37448;51.588;7.248;2023-11-21T08:52:42;100863.69;;;6.80;100.00
51359;BME280;37448;51.588;7.248;2023-11-21T08:54:42;100866.28;;;6.83;100.00
51359;BME280;37448;51.588;7.248;2023-11-21T08:56:44;100864.53;;;6.85;100.00
51359;BME280;37448;51.588;7.248;2023-11-21T08:58:44;100866.28;;;6.89;100.00
51359;BME280;37448;51.588;7.248;2023-11-21T09:00:44;100865.41;;;6.92;100.00
51359;BME280;37448;51.588;7.248;2023-11-21T09:02:46;100873.16;;;6.95;100.00
51359;BME280;37448;51.588;7.248;2023-11-21T09:04:47;100877.50;;;6.99;100.00
51359;BME280;37448;51.588;7.248;2023-11-21T09:06:47;100876.66;;;7.00;100.00
51359;BME280;37448;51.588;7.248;2023-11-21T09:08:47;100876.59;;;7.05;100.00
51359;BME280;37448;51.588;7.248;2023-11-21T09:10:48;100883.53;;;7.06;100.00
51359;BME280;37448;51.588;7.248;2023-11-21T09:12:48;100880.91;;;7.09;100.00
51359;BME280;37448;51.588;7.248;2023-11-21T09:14:48;100883.53;;;7.15;100.00
51359;BME280;37448;51.588;7.248;2023-11-21T09:16:50;100896.50;;;7.15;100.00
51359;BME280;37448;51.588;7.248;2023-11-21T09:18:51;100896.50;;;7.18;100.00
51359;BME280;37448;51.588;7.248;2023-11-21T09:20:51;100902.53;;;7.24;100.00
51359;BME280;37448;51.588;7.248;2023-11-21T09:22:51;100903.41;;;7.23;100.00
51359;BME280;37448;51.588;7.248;2023-11-21T09:24:52;100901.66;;;7.28;100.00
51359;BME280;37448;51.588;7.248;2023-11-21T09:26:52;100893.88;;;7.25;100.00
51359;BME280;37448;51.588;7.248;2023-11-21T09:28:53;100903.41;;;7.27;100.00
51359;BME280;37448;51.588;7.248;2023-11-21T09:30:53;100899.03;;;7.28;100.00
51359;BME280;37448;51.588;7.248;2023-11-21T09:32:54;100905.97;;;7.29;100.00
51359;BME280;37448;51.588;7.248;2023-11-21T09:34:55;100912.03;;;7.29;100.00
51359;BME280;37448;51.588;7.248;2023-11-21T09:36:58;100918.97;;;7.30;100.00
51359;BME280;37448;51.588;7.248;2023-11-21T09:38:58;100914.63;;;7.28;100.00
51359;BME280;37448;51.588;7.248;2023-11-21T09:41:01;100921.56;;;7.29;100.00
51359;BME280;37448;51.588;7.248;2023-11-21T09:43:06;100918.97;;;7.26;100.00
51359;BME280;37448;51.588;7.248;2023-11-21T09:45:10;100920.72;;;7.28;100.00
51359;BME280;37448;51.588;7.248;2023-11-21T09:47:15;100918.09;;;7.27;100.00
51359;BME280;37448;51.588;7.248;2023-11-21T09:49:18;100922.44;;;7.29;100.00
51359;BME280;37448;51.588;7.248;2023-11-21T09:51:21;100926.78;;;7.24;100.00
51359;BME280;37448;51.588;7.248;2023-11-21T09:53:25;100921.59;;;7.24;100.00
51359;BME280;37448;51.588;7.248;2023-11-21T09:55:32;100922.44;;;7.23;100.00
51359;BME280;37448;51.588;7.248;2023-11-21T09:57:36;100923.28;;;7.27;100.00
51359;BME280;37448;51.588;7.248;2023-11-21T09:59:37;100926.75;;;7.29;100.00
51359;BME280;37448;51.588;7.248;2023-11-21T10:01:38;100929.38;;;7.27;100.00
51359;BME280;37448;51.588;7.248;2023-11-21T10:03:41;100931.97;;;7.26;100.00
51359;BME280;37448;51.588;7.248;2023-11-21T10:05:42;100936.25;;;7.33;100.00
51359;BME280;37448;51.588;7.248;2023-11-21T10:07:45;100938.84;;;7.39;100.00
51359;BME280;37448;51.588;7.248;2023-11-21T10:09:47;100937.13;;;7.38;100.00
51359;BME280;37448;51.588;7.248;2023-11-21T10:11:50;100944.03;;;7.42;100.00
51359;BME280;37448;51.588;7.248;2023-11-21T10:13:53;100940.56;;;7.43;100.00
51359;BME280;37448;51.588;7.248;2023-11-21T10:15:54;100938.81;;;7.49;100.00
51359;BME280;37448;51.588;7.248;2023-11-21T10:17:55;100942.25;;;7.54;100.00
51359;BME280;37448;51.588;7.248;2023-11-21T10:19:56;100943.97;;;7.55;100.00
51359;BME280;37448;51.588;7.248;2023-11-21T10:21:58;100944.00;;;7.56;100.00
51359;BME280;37448;51.588;7.248;2023-11-21T10:24:01;100945.75;;;7.50;100.00
51359;BME280;37448;51.588;7.248;2023-11-21T10:26:02;100945.72;;;7.62;100.00
51359;BME280;37448;51.588;7.248;2023-11-21T10:28:04;100944.84;;;7.60;100.00
51359;BME280;37448;51.588;7.248;2023-11-21T10:30:07;100942.22;;;7.61;100.00
51359;BME280;37448;51.588;7.248;2023-11-21T10:32:12;100950.00;;;7.66;100.00